Aviation Digital Data Service (ADDS)

Output produced by METARs form (1803 UTC 17 October 2019)
found at http://aviationweather.gov/metar/data/
 
METAR text: KGGG 171753Z VRB04KT 10SM CLR 18/08 A3004 RMK AO2 SLP172 T01780083 10178 20089 58021
Conditions at: KGGG (LONGVIEW , TX, US) observed 1753 UTC 17 October 2019
Temperature: 17.8°C (64°F)
Dewpoint: 8.3°C (47°F) [RH = 54%]
Pressure (altimeter): 30.04 inches Hg (1017.4 mb)
[Sea-level pressure: 1017.2 mb]
Winds: variable direction winds at 5 MPH (4 knots; 2.1 m/s)
Visibility: 10 or more miles (16+ km)
Ceiling: at least 12,000 feet AGL
Clouds: sky clear below 12,000 feet AGL
Weather: no significant weather observed at this time

METAR text: KGGG 171653Z 13005KT 10SM CLR 17/09 A3006 RMK AO2 SLP179 T01670089
Conditions at: KGGG (LONGVIEW , TX, US) observed 1653 UTC 17 October 2019
Temperature: 16.7°C (62°F)
Dewpoint: 8.9°C (48°F) [RH = 60%]
Pressure (altimeter): 30.06 inches Hg (1018.0 mb)
[Sea-level pressure: 1017.9 mb]
Winds: from the SE (130 degrees) at 6 MPH (5 knots; 2.6 m/s)
Visibility: 10 or more miles (16+ km)
Ceiling: at least 12,000 feet AGL
Clouds: sky clear below 12,000 feet AGL
Weather: no significant weather observed at this time

Forecast for: KGGG (LONGVIEW , TX, US)
Text: KGGG 171740Z 1718/1818 13005KT P6SM SCT180 BKN250
Forecast period: 1800 UTC 17 October 2019 to 0000 UTC 18 October 2019
Forecast type: FROM: standard forecast or significant change
Winds: from the SE (130 degrees) at 6 MPH (5 knots; 2.6 m/s)
Visibility: 6 or more miles 10+ km)
Ceiling: 25000 feet AGL
Clouds: scattered clouds at 18000 feet AGL
broken clouds at 25000 feet AGL
Weather: no significant weather forecast for this period
Text: FM180000 VRB04KT P6SM BKN250
Forecast period: 0000 to 1500 UTC 18 October 2019
Forecast type: FROM: standard forecast or significant change
Winds: variable direction winds at 5 MPH (4 knots; 2.1 m/s)
Visibility: 6 or more miles 10+ km)
Ceiling: 25000 feet AGL
Clouds: broken clouds at 25000 feet AGL
Weather: no significant weather forecast for this period
Text: FM181500 10006KT P6SM SKC
Forecast period: 1500 to 1800 UTC 18 October 2019
Forecast type: FROM: standard forecast or significant change
Winds: from the E (100 degrees) at 7 MPH (6 knots; 3.1 m/s)
Visibility: 6 or more miles 10+ km)
Clouds: clear skies
Weather: no significant weather forecast for this period